sensor_id;sensor_type;location;lat;lon;timestamp;P1;durP1;ratioP1;P2;durP2;ratioP2
57744;SDS011;58941;50.168;4.410;2024-01-27T00:01:26;3.10;;;1.38;;
57744;SDS011;58941;50.168;4.410;2024-01-27T00:03:52;2.70;;;1.25;;
57744;SDS011;58941;50.168;4.410;2024-01-27T00:06:19;2.25;;;1.40;;
57744;SDS011;58941;50.168;4.410;2024-01-27T00:08:44;3.40;;;1.33;;
57744;SDS011;58941;50.168;4.410;2024-01-27T00:11:11;3.65;;;1.35;;
57744;SDS011;58941;50.168;4.410;2024-01-27T00:13:36;3.50;;;1.40;;
57744;SDS011;58941;50.168;4.410;2024-01-27T00:16:02;2.72;;;1.35;;
57744;SDS011;58941;50.168;4.410;2024-01-27T00:18:28;2.67;;;1.15;;
57744;SDS011;58941;50.168;4.410;2024-01-27T00:20:53;2.20;;;1.17;;
57744;SDS011;58941;50.168;4.410;2024-01-27T00:23:19;1.38;;;1.02;;
57744;SDS011;58941;50.168;4.410;2024-01-27T00:25:44;2.40;;;1.55;;
57744;SDS011;58941;50.168;4.410;2024-01-27T00:28:10;1.38;;;1.20;;
57744;SDS011;58941;50.168;4.410;2024-01-27T00:30:35;3.03;;;1.30;;
57744;SDS011;58941;50.168;4.410;2024-01-27T00:33:00;2.10;;;1.20;;
57744;SDS011;58941;50.168;4.410;2024-01-27T00:35:26;3.95;;;1.27;;
57744;SDS011;58941;50.168;4.410;2024-01-27T00:37:52;1.63;;;1.10;;
57744;SDS011;58941;50.168;4.410;2024-01-27T00:40:18;1.98;;;1.10;;
57744;SDS011;58941;50.168;4.410;2024-01-27T00:42:43;2.22;;;1.40;;
57744;SDS011;58941;50.168;4.410;2024-01-27T00:45:09;3.92;;;1.40;;
57744;SDS011;58941;50.168;4.410;2024-01-27T00:47:34;1.77;;;1.45;;
57744;SDS011;58941;50.168;4.410;2024-01-27T00:50:00;1.90;;;1.20;;
57744;SDS011;58941;50.168;4.410;2024-01-27T00:52:26;3.58;;;1.17;;
57744;SDS011;58941;50.168;4.410;2024-01-27T00:54:51;2.85;;;1.65;;
57744;SDS011;58941;50.168;4.410;2024-01-27T00:57:17;2.60;;;1.30;;
57744;SDS011;58941;50.168;4.410;2024-01-27T00:59:42;1.90;;;1.48;;
57744;SDS011;58941;50.168;4.410;2024-01-27T01:02:08;2.42;;;1.40;;
57744;SDS011;58941;50.168;4.410;2024-01-27T01:04:33;2.47;;;1.20;;
57744;SDS011;58941;50.168;4.410;2024-01-27T01:06:59;2.78;;;1.40;;
57744;SDS011;58941;50.168;4.410;2024-01-27T01:09:24;1.98;;;1.40;;
57744;SDS011;58941;50.168;4.410;2024-01-27T01:11:50;2.50;;;1.58;;
57744;SDS011;58941;50.168;4.410;2024-01-27T01:14:16;2.05;;;1.15;;
57744;SDS011;58941;50.168;4.410;2024-01-27T01:16:41;2.90;;;1.60;;
57744;SDS011;58941;50.168;4.410;2024-01-27T01:19:07;4.30;;;1.58;;
57744;SDS011;58941;50.168;4.410;2024-01-27T01:21:32;2.53;;;1.38;;
57744;SDS011;58941;50.168;4.410;2024-01-27T01:23:58;2.00;;;1.40;;
57744;SDS011;58941;50.168;4.410;2024-01-27T01:26:24;2.30;;;1.33;;
57744;SDS011;58941;50.168;4.410;2024-01-27T01:28:50;3.83;;;1.50;;
57744;SDS011;58941;50.168;4.410;2024-01-27T01:31:15;2.10;;;1.30;;
57744;SDS011;58941;50.168;4.410;2024-01-27T01:33:41;2.33;;;1.45;;
57744;SDS011;58941;50.168;4.410;2024-01-27T01:36:07;2.08;;;1.50;;
57744;SDS011;58941;50.168;4.410;2024-01-27T01:38:32;4.43;;;1.42;;
57744;SDS011;58941;50.168;4.410;2024-01-27T01:40:58;1.95;;;1.35;;
57744;SDS011;58941;50.168;4.410;2024-01-27T01:43:23;2.38;;;1.50;;
57744;SDS011;58941;50.168;4.410;2024-01-27T01:45:49;2.53;;;1.52;;
57744;SDS011;58941;50.168;4.410;2024-01-27T01:48:16;3.20;;;1.48;;
57744;SDS011;58941;50.168;4.410;2024-01-27T01:50:41;3.70;;;1.52;;
57744;SDS011;58941;50.168;4.410;2024-01-27T01:53:07;2.60;;;1.77;;
57744;SDS011;58941;50.168;4.410;2024-01-27T01:55:33;2.17;;;1.65;;
57744;SDS011;58941;50.168;4.410;2024-01-27T01:57:59;2.67;;;1.55;;
57744;SDS011;58941;50.168;4.410;2024-01-27T02:00:24;2.53;;;1.52;;
57744;SDS011;58941;50.168;4.410;2024-01-27T02:02:50;3.85;;;1.83;;
57744;SDS011;58941;50.168;4.410;2024-01-27T02:05:15;2.22;;;1.48;;
57744;SDS011;58941;50.168;4.410;2024-01-27T02:07:41;2.55;;;1.50;;
57744;SDS011;58941;50.168;4.410;2024-01-27T02:10:12;2.90;;;1.70;;
57744;SDS011;58941;50.168;4.410;2024-01-27T02:12:39;3.90;;;1.80;;
57744;SDS011;58941;50.168;4.410;2024-01-27T02:15:04;2.72;;;1.60;;
57744;SDS011;58941;50.168;4.410;2024-01-27T02:17:30;3.03;;;1.50;;
57744;SDS011;58941;50.168;4.410;2024-01-27T02:19:56;3.03;;;1.50;;
57744;SDS011;58941;50.168;4.410;2024-01-27T02:22:21;3.17;;;1.50;;
57744;SDS011;58941;50.168;4.410;2024-01-27T02:24:47;3.30;;;1.60;;
57744;SDS011;58941;50.168;4.410;2024-01-27T02:27:12;2.55;;;1.60;;
57744;SDS011;58941;50.168;4.410;2024-01-27T02:29:38;2.10;;;1.58;;
57744;SDS011;58941;50.168;4.410;2024-01-27T02:32:04;2.60;;;1.60;;
57744;SDS011;58941;50.168;4.410;2024-01-27T02:34:29;4.90;;;1.55;;
57744;SDS011;58941;50.168;4.410;2024-01-27T02:36:55;3.53;;;1.70;;
57744;SDS011;58941;50.168;4.410;2024-01-27T02:39:20;2.22;;;1.67;;
57744;SDS011;58941;50.168;4.410;2024-01-27T02:41:46;2.00;;;1.60;;
57744;SDS011;58941;50.168;4.410;2024-01-27T02:44:12;2.92;;;1.63;;
57744;SDS011;58941;50.168;4.410;2024-01-27T02:46:37;3.22;;;1.58;;
57744;SDS011;58941;50.168;4.410;2024-01-27T02:49:03;2.90;;;2.03;;
57744;SDS011;58941;50.168;4.410;2024-01-27T02:51:29;3.22;;;1.52;;
57744;SDS011;58941;50.168;4.410;2024-01-27T02:53:54;3.00;;;1.73;;
57744;SDS011;58941;50.168;4.410;2024-01-27T02:56:20;3.28;;;1.65;;
57744;SDS011;58941;50.168;4.410;2024-01-27T02:58:45;2.53;;;1.67;;
57744;SDS011;58941;50.168;4.410;2024-01-27T03:01:11;3.38;;;1.80;;
57744;SDS011;58941;50.168;4.410;2024-01-27T03:03:36;4.53;;;1.70;;
57744;SDS011;58941;50.168;4.410;2024-01-27T03:06:02;2.95;;;1.77;;
57744;SDS011;58941;50.168;4.410;2024-01-27T03:08:27;3.00;;;1.67;;
57744;SDS011;58941;50.168;4.410;2024-01-27T03:10:53;3.63;;;1.60;;
57744;SDS011;58941;50.168;4.410;2024-01-27T03:13:18;3.50;;;1.80;;
57744;SDS011;58941;50.168;4.410;2024-01-27T03:15:44;2.75;;;1.80;;
57744;SDS011;58941;50.168;4.410;2024-01-27T03:18:10;2.42;;;1.83;;
57744;SDS011;58941;50.168;4.410;2024-01-27T03:20:35;2.53;;;1.70;;
57744;SDS011;58941;50.168;4.410;2024-01-27T03:23:01;2.30;;;1.63;;
57744;SDS011;58941;50.168;4.410;2024-01-27T03:25:26;2.85;;;1.73;;
57744;SDS011;58941;50.168;4.410;2024-01-27T03:27:53;2.50;;;1.67;;
57744;SDS011;58941;50.168;4.410;2024-01-27T03:30:19;3.28;;;1.70;;
57744;SDS011;58941;50.168;4.410;2024-01-27T03:32:44;3.47;;;1.42;;
57744;SDS011;58941;50.168;4.410;2024-01-27T03:35:09;2.63;;;1.67;;
57744;SDS011;58941;50.168;4.410;2024-01-27T03:37:35;3.63;;;2.03;;
57744;SDS011;58941;50.168;4.410;2024-01-27T03:40:01;3.58;;;1.70;;
57744;SDS011;58941;50.168;4.410;2024-01-27T03:42:26;3.60;;;1.88;;
57744;SDS011;58941;50.168;4.410;2024-01-27T03:44:52;2.20;;;1.70;;
57744;SDS011;58941;50.168;4.410;2024-01-27T03:47:18;3.33;;;2.20;;
57744;SDS011;58941;50.168;4.410;2024-01-27T03:49:43;3.00;;;1.92;;
57744;SDS011;58941;50.168;4.410;2024-01-27T03:52:09;4.05;;;1.90;;
57744;SDS011;58941;50.168;4.410;2024-01-27T03:54:37;3.35;;;1.90;;
57744;SDS011;58941;50.168;4.410;2024-01-27T03:57:03;3.40;;;2.25;;
57744;SDS011;58941;50.168;4.410;2024-01-27T03:59:28;3.25;;;1.90;;
57744;SDS011;58941;50.168;4.410;2024-01-27T04:01:54;2.67;;;1.67;;
57744;SDS011;58941;50.168;4.410;2024-01-27T04:04:19;4.25;;;1.98;;
57744;SDS011;58941;50.168;4.410;2024-01-27T04:06:44;2.80;;;1.60;;
57744;SDS011;58941;50.168;4.410;2024-01-27T04:09:11;3.63;;;1.92;;
57744;SDS011;58941;50.168;4.410;2024-01-27T04:11:36;3.28;;;2.05;;
57744;SDS011;58941;50.168;4.410;2024-01-27T04:14:03;2.75;;;2.08;;
57744;SDS011;58941;50.168;4.410;2024-01-27T04:16:29;2.40;;;1.92;;
57744;SDS011;58941;50.168;4.410;2024-01-27T04:18:54;2.97;;;1.80;;
57744;SDS011;58941;50.168;4.410;2024-01-27T04:21:19;4.40;;;2.20;;
57744;SDS011;58941;50.168;4.410;2024-01-27T04:23:45;3.60;;;2.00;;
57744;SDS011;58941;50.168;4.410;2024-01-27T04:26:10;4.18;;;2.00;;
57744;SDS011;58941;50.168;4.410;2024-01-27T04:28:36;3.67;;;2.15;;
57744;SDS011;58941;50.168;4.410;2024-01-27T04:31:02;3.25;;;2.15;;
57744;SDS011;58941;50.168;4.410;2024-01-27T04:33:27;3.15;;;2.00;;
57744;SDS011;58941;50.168;4.410;2024-01-27T04:35:53;2.65;;;1.88;;
57744;SDS011;58941;50.168;4.410;2024-01-27T04:38:18;3.75;;;2.00;;
57744;SDS011;58941;50.168;4.410;2024-01-27T04:40:44;4.50;;;2.00;;
57744;SDS011;58941;50.168;4.410;2024-01-27T04:43:09;4.55;;;2.42;;
57744;SDS011;58941;50.168;4.410;2024-01-27T04:45:35;3.22;;;2.00;;
57744;SDS011;58941;50.168;4.410;2024-01-27T04:48:00;4.05;;;1.83;;
57744;SDS011;58941;50.168;4.410;2024-01-27T04:50:26;4.25;;;2.00;;
57744;SDS011;58941;50.168;4.410;2024-01-27T04:52:52;4.75;;;1.92;;
57744;SDS011;58941;50.168;4.410;2024-01-27T04:55:18;2.92;;;1.83;;
57744;SDS011;58941;50.168;4.410;2024-01-27T04:57:43;4.78;;;2.25;;
57744;SDS011;58941;50.168;4.410;2024-01-27T05:00:09;3.00;;;1.85;;
57744;SDS011;58941;50.168;4.410;2024-01-27T05:02:41;4.28;;;2.25;;
57744;SDS011;58941;50.168;4.410;2024-01-27T05:05:07;3.17;;;1.90;;
57744;SDS011;58941;50.168;4.410;2024-01-27T05:07:32;3.03;;;2.10;;
57744;SDS011;58941;50.168;4.410;2024-01-27T05:09:58;3.92;;;2.17;;
57744;SDS011;58941;50.168;4.410;2024-01-27T05:12:23;3.30;;;2.20;;
57744;SDS011;58941;50.168;4.410;2024-01-27T05:14:49;2.75;;;1.90;;
57744;SDS011;58941;50.168;4.410;2024-01-27T05:17:14;4.15;;;2.40;;
57744;SDS011;58941;50.168;4.410;2024-01-27T05:19:40;3.85;;;2.00;;
57744;SDS011;58941;50.168;4.410;2024-01-27T05:22:05;2.67;;;1.70;;
57744;SDS011;58941;50.168;4.410;2024-01-27T05:24:31;4.50;;;2.22;;
57744;SDS011;58941;50.168;4.410;2024-01-27T05:26:56;3.63;;;1.70;;
57744;SDS011;58941;50.168;4.410;2024-01-27T05:29:22;4.32;;;2.33;;
57744;SDS011;58941;50.168;4.410;2024-01-27T05:31:47;2.65;;;1.83;;
57744;SDS011;58941;50.168;4.410;2024-01-27T05:34:14;3.75;;;2.22;;
57744;SDS011;58941;50.168;4.410;2024-01-27T05:36:40;3.90;;;2.50;;
57744;SDS011;58941;50.168;4.410;2024-01-27T05:39:05;3.10;;;2.17;;
57744;SDS011;58941;50.168;4.410;2024-01-27T05:41:32;4.28;;;2.17;;
57744;SDS011;58941;50.168;4.410;2024-01-27T05:43:57;4.72;;;2.47;;
57744;SDS011;58941;50.168;4.410;2024-01-27T05:46:24;3.97;;;2.35;;
57744;SDS011;58941;50.168;4.410;2024-01-27T05:48:49;4.00;;;2.20;;
57744;SDS011;58941;50.168;4.410;2024-01-27T05:51:16;3.90;;;2.20;;
57744;SDS011;58941;50.168;4.410;2024-01-27T05:53:41;4.22;;;2.33;;
57744;SDS011;58941;50.168;4.410;2024-01-27T05:56:07;3.85;;;2.10;;
57744;SDS011;58941;50.168;4.410;2024-01-27T05:58:32;4.50;;;2.08;;
57744;SDS011;58941;50.168;4.410;2024-01-27T06:00:58;2.95;;;2.08;;
57744;SDS011;58941;50.168;4.410;2024-01-27T06:03:23;4.57;;;2.53;;
57744;SDS011;58941;50.168;4.410;2024-01-27T06:05:49;3.97;;;2.40;;
57744;SDS011;58941;50.168;4.410;2024-01-27T06:08:14;3.50;;;2.22;;
57744;SDS011;58941;50.168;4.410;2024-01-27T06:10:40;3.72;;;2.33;;
57744;SDS011;58941;50.168;4.410;2024-01-27T06:13:05;3.90;;;2.30;;
57744;SDS011;58941;50.168;4.410;2024-01-27T06:15:31;3.22;;;1.95;;
57744;SDS011;58941;50.168;4.410;2024-01-27T06:17:56;4.05;;;2.55;;
57744;SDS011;58941;50.168;4.410;2024-01-27T06:20:23;3.65;;;2.35;;
57744;SDS011;58941;50.168;4.410;2024-01-27T06:22:48;3.55;;;2.72;;
57744;SDS011;58941;50.168;4.410;2024-01-27T06:25:14;4.38;;;2.63;;
57744;SDS011;58941;50.168;4.410;2024-01-27T06:27:40;3.17;;;2.40;;
57744;SDS011;58941;50.168;4.410;2024-01-27T06:30:07;5.15;;;2.40;;
57744;SDS011;58941;50.168;4.410;2024-01-27T06:32:32;4.90;;;2.65;;
57744;SDS011;58941;50.168;4.410;2024-01-27T06:34:58;3.72;;;2.42;;
57744;SDS011;58941;50.168;4.410;2024-01-27T06:37:23;3.92;;;2.50;;
57744;SDS011;58941;50.168;4.410;2024-01-27T06:39:49;3.30;;;2.60;;
57744;SDS011;58941;50.168;4.410;2024-01-27T06:42:14;4.43;;;2.78;;
57744;SDS011;58941;50.168;4.410;2024-01-27T06:44:40;4.85;;;2.88;;
57744;SDS011;58941;50.168;4.410;2024-01-27T06:47:05;3.95;;;2.50;;
57744;SDS011;58941;50.168;4.410;2024-01-27T06:49:31;3.90;;;2.60;;
57744;SDS011;58941;50.168;4.410;2024-01-27T06:51:57;4.28;;;2.35;;
57744;SDS011;58941;50.168;4.410;2024-01-27T06:54:22;4.18;;;2.50;;
57744;SDS011;58941;50.168;4.410;2024-01-27T06:56:47;5.03;;;2.42;;
57744;SDS011;58941;50.168;4.410;2024-01-27T06:59:13;4.60;;;2.80;;
57744;SDS011;58941;50.168;4.410;2024-01-27T07:01:39;3.53;;;2.63;;
57744;SDS011;58941;50.168;4.410;2024-01-27T07:04:10;4.05;;;2.45;;
57744;SDS011;58941;50.168;4.410;2024-01-27T07:06:35;5.03;;;2.80;;
57744;SDS011;58941;50.168;4.410;2024-01-27T07:09:01;3.17;;;2.25;;
57744;SDS011;58941;50.168;4.410;2024-01-27T07:11:26;4.05;;;2.50;;
57744;SDS011;58941;50.168;4.410;2024-01-27T07:13:52;3.90;;;2.55;;
57744;SDS011;58941;50.168;4.410;2024-01-27T07:16:17;6.32;;;2.78;;
57744;SDS011;58941;50.168;4.410;2024-01-27T07:18:43;4.97;;;2.60;;
57744;SDS011;58941;50.168;4.410;2024-01-27T07:21:08;3.85;;;2.50;;
57744;SDS011;58941;50.168;4.410;2024-01-27T07:23:39;5.80;;;2.72;;
57744;SDS011;58941;50.168;4.410;2024-01-27T07:26:07;4.50;;;2.45;;
57744;SDS011;58941;50.168;4.410;2024-01-27T07:28:32;2.90;;;2.20;;
57744;SDS011;58941;50.168;4.410;2024-01-27T07:30:58;4.28;;;2.40;;
57744;SDS011;58941;50.168;4.410;2024-01-27T07:33:23;4.78;;;2.60;;
57744;SDS011;58941;50.168;4.410;2024-01-27T07:35:49;3.50;;;2.67;;
57744;SDS011;58941;50.168;4.410;2024-01-27T07:38:15;4.15;;;2.53;;
57744;SDS011;58941;50.168;4.410;2024-01-27T07:40:40;4.47;;;2.42;;
57744;SDS011;58941;50.168;4.410;2024-01-27T07:43:06;5.35;;;2.83;;
57744;SDS011;58941;50.168;4.410;2024-01-27T07:45:31;4.90;;;2.72;;
57744;SDS011;58941;50.168;4.410;2024-01-27T07:47:57;4.47;;;2.78;;
57744;SDS011;58941;50.168;4.410;2024-01-27T07:50:23;3.40;;;2.50;;
57744;SDS011;58941;50.168;4.410;2024-01-27T07:52:48;4.65;;;2.65;;
57744;SDS011;58941;50.168;4.410;2024-01-27T07:55:14;4.60;;;2.85;;
57744;SDS011;58941;50.168;4.410;2024-01-27T07:57:39;5.68;;;2.58;;
57744;SDS011;58941;50.168;4.410;2024-01-27T08:00:05;4.00;;;2.85;;
57744;SDS011;58941;50.168;4.410;2024-01-27T08:02:31;3.75;;;2.53;;
57744;SDS011;58941;50.168;4.410;2024-01-27T08:04:58;4.07;;;2.53;;
57744;SDS011;58941;50.168;4.410;2024-01-27T08:07:23;4.57;;;2.67;;
57744;SDS011;58941;50.168;4.410;2024-01-27T08:09:49;4.22;;;2.50;;
57744;SDS011;58941;50.168;4.410;2024-01-27T08:12:14;3.85;;;2.60;;
57744;SDS011;58941;50.168;4.410;2024-01-27T08:14:39;4.85;;;2.60;;
57744;SDS011;58941;50.168;4.410;2024-01-27T08:17:05;4.60;;;2.42;;
57744;SDS011;58941;50.168;4.410;2024-01-27T08:19:31;3.92;;;2.28;;
57744;SDS011;58941;50.168;4.410;2024-01-27T08:21:56;4.25;;;2.50;;
57744;SDS011;58941;50.168;4.410;2024-01-27T08:24:22;4.57;;;2.33;;
57744;SDS011;58941;50.168;4.410;2024-01-27T08:26:49;4.90;;;2.67;;
57744;SDS011;58941;50.168;4.410;2024-01-27T08:29:15;3.83;;;2.60;;
57744;SDS011;58941;50.168;4.410;2024-01-27T08:31:40;3.55;;;2.35;;
57744;SDS011;58941;50.168;4.410;2024-01-27T08:34:06;3.13;;;2.50;;
57744;SDS011;58941;50.168;4.410;2024-01-27T08:36:32;4.60;;;2.20;;
57744;SDS011;58941;50.168;4.410;2024-01-27T08:38:59;4.07;;;2.53;;
57744;SDS011;58941;50.168;4.410;2024-01-27T08:41:24;5.30;;;2.45;;
57744;SDS011;58941;50.168;4.410;2024-01-27T08:43:50;3.28;;;2.05;;
57744;SDS011;58941;50.168;4.410;2024-01-27T08:46:16;5.93;;;2.55;;
57744;SDS011;58941;50.168;4.410;2024-01-27T08:48:44;3.33;;;2.47;;
57744;SDS011;58941;50.168;4.410;2024-01-27T08:51:10;3.85;;;2.50;;
57744;SDS011;58941;50.168;4.410;2024-01-27T08:53:37;3.42;;;2.15;;
57744;SDS011;58941;50.168;4.410;2024-01-27T08:56:03;4.18;;;2.60;;
57744;SDS011;58941;50.168;4.410;2024-01-27T08:58:28;3.72;;;2.28;;
57744;SDS011;58941;50.168;4.410;2024-01-27T09:00:54;4.25;;;2.33;;
57744;SDS011;58941;50.168;4.410;2024-01-27T09:03:19;3.95;;;2.42;;
57744;SDS011;58941;50.168;4.410;2024-01-27T09:05:48;3.10;;;2.25;;
57744;SDS011;58941;50.168;4.410;2024-01-27T09:08:14;3.08;;;2.20;;
57744;SDS011;58941;50.168;4.410;2024-01-27T09:10:39;3.60;;;2.30;;
57744;SDS011;58941;50.168;4.410;2024-01-27T09:13:05;4.63;;;2.40;;
57744;SDS011;58941;50.168;4.410;2024-01-27T09:15:30;5.07;;;2.33;;
57744;SDS011;58941;50.168;4.410;2024-01-27T09:17:56;4.32;;;2.30;;
57744;SDS011;58941;50.168;4.410;2024-01-27T09:20:22;4.03;;;2.35;;
57744;SDS011;58941;50.168;4.410;2024-01-27T09:22:47;3.80;;;2.47;;
57744;SDS011;58941;50.168;4.410;2024-01-27T09:25:14;3.95;;;2.42;;
57744;SDS011;58941;50.168;4.410;2024-01-27T09:27:40;4.40;;;2.40;;
57744;SDS011;58941;50.168;4.410;2024-01-27T09:30:06;5.13;;;2.58;;
57744;SDS011;58941;50.168;4.410;2024-01-27T09:32:32;3.47;;;2.10;;
57744;SDS011;58941;50.168;4.410;2024-01-27T09:34:58;3.63;;;2.30;;
57744;SDS011;58941;50.168;4.410;2024-01-27T09:37:23;4.30;;;2.10;;
57744;SDS011;58941;50.168;4.410;2024-01-27T09:39:49;4.43;;;2.70;;
57744;SDS011;58941;50.168;4.410;2024-01-27T09:42:14;4.43;;;2.78;;
57744;SDS011;58941;50.168;4.410;2024-01-27T09:44:42;4.55;;;2.33;;
57744;SDS011;58941;50.168;4.410;2024-01-27T09:47:08;3.75;;;2.30;;
57744;SDS011;58941;50.168;4.410;2024-01-27T09:49:33;4.93;;;2.55;;
57744;SDS011;58941;50.168;4.410;2024-01-27T09:51:59;3.00;;;2.35;;
57744;SDS011;58941;50.168;4.410;2024-01-27T09:54:25;4.07;;;2.05;;
57744;SDS011;58941;50.168;4.410;2024-01-27T09:56:50;3.08;;;1.98;;
57744;SDS011;58941;50.168;4.410;2024-01-27T09:59:17;3.92;;;2.45;;
57744;SDS011;58941;50.168;4.410;2024-01-27T10:01:44;4.82;;;2.33;;
57744;SDS011;58941;50.168;4.410;2024-01-27T10:04:09;3.83;;;2.33;;
57744;SDS011;58941;50.168;4.410;2024-01-27T10:06:35;3.55;;;2.30;;
57744;SDS011;58941;50.168;4.410;2024-01-27T10:09:00;4.70;;;2.92;;
57744;SDS011;58941;50.168;4.410;2024-01-27T10:11:26;3.70;;;2.40;;
57744;SDS011;58941;50.168;4.410;2024-01-27T10:13:55;4.43;;;2.35;;
57744;SDS011;58941;50.168;4.410;2024-01-27T10:16:27;4.47;;;2.33;;
57744;SDS011;58941;50.168;4.410;2024-01-27T10:19:00;3.47;;;2.70;;
57744;SDS011;58941;50.168;4.410;2024-01-27T10:21:26;5.53;;;2.53;;
57744;SDS011;58941;50.168;4.410;2024-01-27T10:23:52;5.50;;;2.45;;
57744;SDS011;58941;50.168;4.410;2024-01-27T10:26:18;2.95;;;2.05;;
57744;SDS011;58941;50.168;4.410;2024-01-27T10:28:51;4.40;;;2.40;;
57744;SDS011;58941;50.168;4.410;2024-01-27T10:31:17;3.60;;;2.40;;
57744;SDS011;58941;50.168;4.410;2024-01-27T10:33:54;3.83;;;2.58;;
57744;SDS011;58941;50.168;4.410;2024-01-27T10:36:19;2.63;;;2.08;;
57744;SDS011;58941;50.168;4.410;2024-01-27T10:38:45;3.00;;;1.95;;
57744;SDS011;58941;50.168;4.410;2024-01-27T10:41:10;3.80;;;2.40;;
57744;SDS011;58941;50.168;4.410;2024-01-27T10:43:36;5.53;;;2.67;;
57744;SDS011;58941;50.168;4.410;2024-01-27T10:46:06;4.22;;;2.50;;
57744;SDS011;58941;50.168;4.410;2024-01-27T10:48:33;4.57;;;2.58;;
57744;SDS011;58941;50.168;4.410;2024-01-27T10:51:00;4.20;;;2.50;;
57744;SDS011;58941;50.168;4.410;2024-01-27T10:53:28;5.65;;;2.22;;
57744;SDS011;58941;50.168;4.410;2024-01-27T10:55:57;3.58;;;2.60;;
57744;SDS011;58941;50.168;4.410;2024-01-27T10:58:23;4.35;;;2.75;;
57744;SDS011;58941;50.168;4.410;2024-01-27T11:00:50;5.05;;;2.33;;
57744;SDS011;58941;50.168;4.410;2024-01-27T11:03:16;4.63;;;2.40;;
57744;SDS011;58941;50.168;4.410;2024-01-27T11:05:42;3.60;;;2.13;;
57744;SDS011;58941;50.168;4.410;2024-01-27T11:08:09;4.10;;;2.40;;
57744;SDS011;58941;50.168;4.410;2024-01-27T11:10:36;3.95;;;2.28;;
57744;SDS011;58941;50.168;4.410;2024-01-27T11:13:06;4.25;;;2.50;;
57744;SDS011;58941;50.168;4.410;2024-01-27T11:15:32;4.90;;;2.35;;
57744;SDS011;58941;50.168;4.410;2024-01-27T11:17:58;4.65;;;2.40;;
57744;SDS011;58941;50.168;4.410;2024-01-27T11:20:33;3.95;;;2.30;;
57744;SDS011;58941;50.168;4.410;2024-01-27T11:23:12;4.32;;;2.42;;
57744;SDS011;58941;50.168;4.410;2024-01-27T11:25:39;3.80;;;2.40;;
57744;SDS011;58941;50.168;4.410;2024-01-27T11:28:10;4.32;;;2.20;;
57744;SDS011;58941;50.168;4.410;2024-01-27T11:30:38;5.22;;;2.60;;
57744;SDS011;58941;50.168;4.410;2024-01-27T11:33:05;4.35;;;2.40;;
57744;SDS011;58941;50.168;4.410;2024-01-27T11:35:31;4.15;;;2.25;;
57744;SDS011;58941;50.168;4.410;2024-01-27T11:37:56;5.90;;;2.70;;
57744;SDS011;58941;50.168;4.410;2024-01-27T11:40:22;5.90;;;2.70;;
57744;SDS011;58941;50.168;4.410;2024-01-27T11:42:53;3.83;;;2.25;;
57744;SDS011;58941;50.168;4.410;2024-01-27T11:45:19;5.53;;;2.50;;
57744;SDS011;58941;50.168;4.410;2024-01-27T11:47:44;2.97;;;2.15;;
57744;SDS011;58941;50.168;4.410;2024-01-27T11:50:10;5.13;;;2.20;;
57744;SDS011;58941;50.168;4.410;2024-01-27T11:52:36;4.13;;;2.17;;
57744;SDS011;58941;50.168;4.410;2024-01-27T11:55:02;3.35;;;2.15;;
57744;SDS011;58941;50.168;4.410;2024-01-27T11:57:28;5.53;;;2.40;;
57744;SDS011;58941;50.168;4.410;2024-01-27T11:59:54;3.30;;;2.30;;
57744;SDS011;58941;50.168;4.410;2024-01-27T12:02:20;3.15;;;1.98;;
57744;SDS011;58941;50.168;4.410;2024-01-27T12:04:46;3.30;;;2.17;;
57744;SDS011;58941;50.168;4.410;2024-01-27T12:07:12;4.50;;;2.42;;
57744;SDS011;58941;50.168;4.410;2024-01-27T12:09:38;5.30;;;2.58;;
57744;SDS011;58941;50.168;4.410;2024-01-27T12:12:03;4.43;;;2.40;;
57744;SDS011;58941;50.168;4.410;2024-01-27T12:14:45;4.03;;;2.33;;
57744;SDS011;58941;50.168;4.410;2024-01-27T12:17:10;5.13;;;2.10;;
57744;SDS011;58941;50.168;4.410;2024-01-27T12:19:37;4.07;;;2.15;;
57744;SDS011;58941;50.168;4.410;2024-01-27T12:22:03;2.83;;;2.05;;
57744;SDS011;58941;50.168;4.410;2024-01-27T12:24:29;6.43;;;2.25;;
57744;SDS011;58941;50.168;4.410;2024-01-27T12:26:56;5.15;;;2.30;;
57744;SDS011;58941;50.168;4.410;2024-01-27T12:29:22;5.18;;;2.53;;
57744;SDS011;58941;50.168;4.410;2024-01-27T12:31:48;3.08;;;1.90;;
57744;SDS011;58941;50.168;4.410;2024-01-27T12:34:14;4.78;;;2.10;;
57744;SDS011;58941;50.168;4.410;2024-01-27T12:36:40;3.78;;;2.30;;
57744;SDS011;58941;50.168;4.410;2024-01-27T12:39:06;2.20;;;1.80;;
57744;SDS011;58941;50.168;4.410;2024-01-27T12:41:31;4.13;;;2.25;;
57744;SDS011;58941;50.168;4.410;2024-01-27T12:43:59;3.97;;;2.10;;
57744;SDS011;58941;50.168;4.410;2024-01-27T12:46:24;4.07;;;2.03;;
57744;SDS011;58941;50.168;4.410;2024-01-27T12:48:50;3.75;;;1.90;;
57744;SDS011;58941;50.168;4.410;2024-01-27T12:51:15;5.30;;;2.35;;
57744;SDS011;58941;50.168;4.410;2024-01-27T12:53:42;4.47;;;2.00;;
57744;SDS011;58941;50.168;4.410;2024-01-27T12:56:12;3.33;;;2.10;;
57744;SDS011;58941;50.168;4.410;2024-01-27T12:58:38;3.85;;;2.15;;
57744;SDS011;58941;50.168;4.410;2024-01-27T13:01:05;4.22;;;2.28;;
57744;SDS011;58941;50.168;4.410;2024-01-27T13:03:31;4.10;;;2.33;;
57744;SDS011;58941;50.168;4.410;2024-01-27T13:05:56;3.15;;;1.98;;
57744;SDS011;58941;50.168;4.410;2024-01-27T13:08:22;3.15;;;1.80;;
57744;SDS011;58941;50.168;4.410;2024-01-27T13:10:48;3.38;;;2.15;;
57744;SDS011;58941;50.168;4.410;2024-01-27T13:13:13;4.88;;;2.25;;
57744;SDS011;58941;50.168;4.410;2024-01-27T13:15:39;5.32;;;2.42;;
57744;SDS011;58941;50.168;4.410;2024-01-27T13:18:04;3.55;;;2.25;;
57744;SDS011;58941;50.168;4.410;2024-01-27T13:20:29;4.15;;;2.20;;
57744;SDS011;58941;50.168;4.410;2024-01-27T13:22:55;5.10;;;2.40;;
57744;SDS011;58941;50.168;4.410;2024-01-27T13:25:20;3.97;;;2.17;;
57744;SDS011;58941;50.168;4.410;2024-01-27T13:27:46;4.07;;;2.10;;
57744;SDS011;58941;50.168;4.410;2024-01-27T13:30:12;3.17;;;2.03;;
57744;SDS011;58941;50.168;4.410;2024-01-27T13:32:38;3.83;;;2.03;;
57744;SDS011;58941;50.168;4.410;2024-01-27T13:35:03;5.00;;;2.10;;
57744;SDS011;58941;50.168;4.410;2024-01-27T13:37:29;5.03;;;2.30;;
57744;SDS011;58941;50.168;4.410;2024-01-27T13:40:02;5.28;;;2.40;;
57744;SDS011;58941;50.168;4.410;2024-01-27T13:42:28;3.03;;;1.88;;
57744;SDS011;58941;50.168;4.410;2024-01-27T13:44:54;2.97;;;1.73;;
57744;SDS011;58941;50.168;4.410;2024-01-27T13:47:20;4.07;;;2.10;;
57744;SDS011;58941;50.168;4.410;2024-01-27T13:49:45;4.93;;;2.53;;
57744;SDS011;58941;50.168;4.410;2024-01-27T13:52:11;2.60;;;1.90;;
57744;SDS011;58941;50.168;4.410;2024-01-27T13:54:37;5.03;;;2.15;;
57744;SDS011;58941;50.168;4.410;2024-01-27T13:57:02;3.63;;;1.98;;
57744;SDS011;58941;50.168;4.410;2024-01-27T13:59:28;3.90;;;2.03;;
57744;SDS011;58941;50.168;4.410;2024-01-27T14:01:54;5.72;;;2.55;;
57744;SDS011;58941;50.168;4.410;2024-01-27T14:04:22;3.78;;;2.20;;
57744;SDS011;58941;50.168;4.410;2024-01-27T14:06:47;3.83;;;2.20;;
57744;SDS011;58941;50.168;4.410;2024-01-27T14:09:13;3.83;;;2.00;;
57744;SDS011;58941;50.168;4.410;2024-01-27T14:11:39;3.65;;;2.00;;
57744;SDS011;58941;50.168;4.410;2024-01-27T14:14:04;3.28;;;1.85;;
57744;SDS011;58941;50.168;4.410;2024-01-27T14:16:30;4.93;;;2.25;;
57744;SDS011;58941;50.168;4.410;2024-01-27T14:18:57;3.60;;;2.20;;
57744;SDS011;58941;50.168;4.410;2024-01-27T14:21:22;3.67;;;2.33;;
57744;SDS011;58941;50.168;4.410;2024-01-27T14:23:49;4.22;;;2.28;;
57744;SDS011;58941;50.168;4.410;2024-01-27T14:26:14;2.03;;;1.73;;
57744;SDS011;58941;50.168;4.410;2024-01-27T14:28:40;2.85;;;1.60;;
57744;SDS011;58941;50.168;4.410;2024-01-27T14:31:06;2.35;;;1.70;;
57744;SDS011;58941;50.168;4.410;2024-01-27T14:33:32;4.03;;;1.70;;
57744;SDS011;58941;50.168;4.410;2024-01-27T14:35:58;4.28;;;2.00;;
57744;SDS011;58941;50.168;4.410;2024-01-27T14:38:24;3.58;;;1.95;;
57744;SDS011;58941;50.168;4.410;2024-01-27T14:40:49;2.42;;;1.85;;